createdAt,value
2019-04-06T00:01:24.105Z,33.80
2019-04-06T00:03:52.415Z,34.80
2019-04-06T00:06:20.827Z,34.60
2019-04-06T00:08:49.155Z,34.57
2019-04-06T00:11:17.520Z,36.23
2019-04-06T00:13:45.896Z,33.00
2019-04-06T00:16:14.232Z,34.93
2019-04-06T00:18:42.615Z,34.77
2019-04-06T00:21:10.935Z,34.87
2019-04-06T00:23:39.263Z,33.93
2019-04-06T00:26:07.622Z,33.77
2019-04-06T00:28:35.902Z,33.83
2019-04-06T00:31:04.293Z,36.30
2019-04-06T00:33:32.568Z,37.17
2019-04-06T00:36:01.040Z,36.20
2019-04-06T00:38:29.316Z,36.90
2019-04-06T00:40:57.623Z,35.53
2019-04-06T00:43:25.925Z,36.40
2019-04-06T00:45:54.219Z,36.67
2019-04-06T00:48:22.500Z,34.80
2019-04-06T00:50:50.879Z,37.37
2019-04-06T00:53:19.158Z,36.60
2019-04-06T00:55:55.540Z,36.00
2019-04-06T00:58:17.419Z,36.33
2019-04-06T01:00:45.737Z,35.97
2019-04-06T01:03:14.008Z,37.40
2019-04-06T01:05:42.323Z,36.63
2019-04-06T01:08:10.673Z,37.47
2019-04-06T01:10:38.998Z,38.27
2019-04-06T01:13:07.289Z,36.53
2019-04-06T01:15:35.736Z,39.27
2019-04-06T01:18:04.132Z,38.53
2019-04-06T01:20:32.462Z,36.50
2019-04-06T01:23:00.766Z,38.10
2019-04-06T01:25:29.040Z,39.97
2019-04-06T01:27:57.403Z,37.67
2019-04-06T01:30:25.683Z,39.83
2019-04-06T01:32:53.978Z,38.03
2019-04-06T01:35:22.274Z,40.87
2019-04-06T01:37:50.583Z,38.23
2019-04-06T01:40:18.857Z,38.57
2019-04-06T01:42:47.235Z,38.47
2019-04-06T01:45:15.582Z,39.07
2019-04-06T01:47:43.881Z,38.77
2019-04-06T01:50:12.227Z,39.13
2019-04-06T01:52:40.538Z,38.63
2019-04-06T01:55:08.902Z,39.43
2019-04-06T01:57:37.187Z,40.47
2019-04-06T02:00:08.203Z,38.70
2019-04-06T02:02:36.499Z,36.50
2019-04-06T02:05:05.846Z,37.83
2019-04-06T02:07:34.156Z,37.97
2019-04-06T02:10:03.456Z,37.30
2019-04-06T02:12:31.756Z,38.70
2019-04-06T02:15:00.075Z,38.93
2019-04-06T02:17:28.429Z,37.20
2019-04-06T02:19:56.726Z,34.03
2019-04-06T02:22:25.019Z,33.73
2019-04-06T02:24:53.389Z,35.33
2019-04-06T02:27:21.694Z,34.33
2019-04-06T02:29:50.138Z,35.17
2019-04-06T02:32:18.439Z,36.33
2019-04-06T02:34:46.867Z,37.70
2019-04-06T02:37:15.151Z,33.60
2019-04-06T02:39:43.447Z,36.40
2019-04-06T02:42:11.767Z,36.43
2019-04-06T02:44:40.530Z,34.40
2019-04-06T02:47:08.834Z,34.97
2019-04-06T02:49:37.222Z,36.20
2019-04-06T02:52:05.529Z,36.67
2019-04-06T02:54:33.868Z,37.77
2019-04-06T02:57:02.309Z,35.97
2019-04-06T02:59:30.601Z,35.07
2019-04-06T03:01:58.950Z,35.77
2019-04-06T03:04:27.262Z,34.77
2019-04-06T03:06:55.602Z,35.30
2019-04-06T03:09:23.926Z,34.10
2019-04-06T03:11:52.307Z,33.50
2019-04-06T03:14:20.770Z,35.37
2019-04-06T03:16:49.068Z,34.77
2019-04-06T03:19:17.647Z,35.30
2019-04-06T03:21:46.014Z,35.30
2019-04-06T03:24:14.294Z,35.73
2019-04-06T03:26:42.609Z,33.03
2019-04-06T03:29:11.117Z,35.50
2019-04-06T03:31:39.460Z,34.73
2019-04-06T03:34:07.913Z,34.07
2019-04-06T03:36:36.219Z,33.27
2019-04-06T03:39:05.167Z,34.00
2019-04-06T03:41:33.476Z,35.80
2019-04-06T03:44:02.012Z,34.97
2019-04-06T03:46:30.379Z,34.30
2019-04-06T03:48:58.743Z,34.23
2019-04-06T03:51:27.221Z,33.53
2019-04-06T03:53:55.587Z,34.17
2019-04-06T03:56:23.904Z,34.63
2019-04-06T03:58:52.726Z,33.73
2019-04-06T04:01:21.124Z,34.37
2019-04-06T04:03:49.435Z,34.27
2019-04-06T04:06:17.719Z,35.27
2019-04-06T04:08:46.308Z,33.73
2019-04-06T04:11:14.613Z,35.03
2019-04-06T04:13:42.924Z,35.03
2019-04-06T04:16:11.277Z,34.53
2019-04-06T04:18:39.647Z,32.90
2019-04-06T04:21:07.929Z,34.80
2019-04-06T04:23:36.239Z,33.60
2019-04-06T04:26:04.680Z,34.77
2019-04-06T04:28:32.984Z,32.67
2019-04-06T04:31:01.261Z,34.70
2019-04-06T04:33:29.632Z,33.53
2019-04-06T04:35:57.947Z,34.80
2019-04-06T04:38:26.322Z,35.17
2019-04-06T04:40:54.684Z,34.43
2019-04-06T04:43:23.047Z,33.23
2019-04-06T04:45:51.335Z,35.97
2019-04-06T04:48:19.713Z,33.80
2019-04-06T04:50:47.995Z,34.10
2019-04-06T04:53:16.292Z,33.70
2019-04-06T04:55:44.571Z,33.30
2019-04-06T04:58:12.851Z,33.87
2019-04-06T05:00:41.228Z,33.43
2019-04-06T05:03:09.817Z,35.90
2019-04-06T05:05:38.245Z,34.10
2019-04-06T05:08:06.537Z,32.70
2019-04-06T05:10:34.897Z,34.27
2019-04-06T05:13:03.429Z,32.97
2019-04-06T05:15:33.383Z,34.00
2019-04-06T05:18:05.922Z,34.27
2019-04-06T05:20:35.282Z,33.60
2019-04-06T05:23:03.700Z,33.47
2019-04-06T05:25:32.337Z,33.03
2019-04-06T05:28:00.680Z,34.77
2019-04-06T05:30:28.985Z,34.47
2019-04-06T05:32:57.259Z,33.67
2019-04-06T05:35:25.564Z,33.77
2019-04-06T05:37:53.843Z,33.13
2019-04-06T05:40:25.231Z,31.87
2019-04-06T05:42:54.286Z,31.23
2019-04-06T05:45:22.730Z,32.63
2019-04-06T05:47:51.007Z,31.03
2019-04-06T05:50:19.386Z,30.93
2019-04-06T05:52:47.787Z,30.87
2019-04-06T05:55:16.080Z,30.17
2019-04-06T05:57:44.806Z,31.63
2019-04-06T06:00:13.175Z,31.40
2019-04-06T06:02:41.910Z,32.97
2019-04-06T06:05:11.078Z,29.97
2019-04-06T06:07:39.562Z,30.30
2019-04-06T06:10:08.038Z,30.27
2019-04-06T06:12:36.646Z,29.97
2019-04-06T06:15:05.613Z,30.27
2019-04-06T06:17:33.920Z,30.87
2019-04-06T06:20:07.608Z,31.17
2019-04-06T06:22:37.123Z,30.40
2019-04-06T06:25:05.474Z,28.30
2019-04-06T06:27:33.955Z,29.83
2019-04-06T06:30:05.072Z,28.47
2019-04-06T06:32:33.842Z,29.53
2019-04-06T06:35:02.224Z,29.00
2019-04-06T06:37:30.529Z,29.33
2019-04-06T06:39:58.878Z,27.87
2019-04-06T06:42:27.199Z,27.63
2019-04-06T06:44:55.635Z,27.67
2019-04-06T06:47:24.007Z,26.90
2019-04-06T06:49:52.348Z,25.47
2019-04-06T06:52:20.733Z,28.53
2019-04-06T06:54:49.054Z,26.00
2019-04-06T06:57:17.353Z,26.13
2019-04-06T06:59:45.715Z,25.47
2019-04-06T07:02:13.993Z,23.53
2019-04-06T07:04:42.301Z,24.37
2019-04-06T07:07:10.765Z,24.97
2019-04-06T07:09:39.069Z,25.90
2019-04-06T07:12:07.545Z,23.77
2019-04-06T07:14:36.014Z,25.10
2019-04-06T07:17:04.355Z,24.23
2019-04-06T07:19:32.905Z,25.17
2019-04-06T07:22:01.254Z,25.17
2019-04-06T07:24:29.581Z,28.57
2019-04-06T07:26:57.869Z,26.53
2019-04-06T07:29:26.185Z,27.90
2019-04-06T07:31:54.461Z,28.87
2019-04-06T07:34:22.795Z,30.40
2019-04-06T07:36:51.117Z,30.77
2019-04-06T07:39:19.425Z,29.17
2019-04-06T07:41:50.918Z,29.37
2019-04-06T07:44:19.225Z,30.03
2019-04-06T07:46:47.571Z,29.63
2019-04-06T07:49:15.846Z,28.20
2019-04-06T07:51:44.162Z,27.83
2019-04-06T07:54:12.685Z,28.07
2019-04-06T07:56:41.119Z,26.60
2019-04-06T07:59:09.440Z,27.43
2019-04-06T08:01:37.743Z,27.13
2019-04-06T08:04:06.025Z,26.63
2019-04-06T08:06:34.328Z,25.93
2019-04-06T08:09:04.283Z,25.27
2019-04-06T08:11:32.598Z,25.50
2019-04-06T08:14:00.891Z,25.37
2019-04-06T08:16:29.200Z,25.23
2019-04-06T08:18:57.478Z,25.03
2019-04-06T08:21:25.855Z,26.27
2019-04-06T08:23:54.208Z,25.20
2019-04-06T08:26:22.828Z,25.37
2019-04-06T08:29:00.253Z,25.70
2019-04-06T08:31:21.202Z,26.53
2019-04-06T08:33:49.551Z,25.63
2019-04-06T08:36:17.966Z,26.17
2019-04-06T08:38:46.254Z,25.87
2019-04-06T08:41:14.650Z,25.80
2019-04-06T08:43:42.944Z,24.20
2019-04-06T08:46:11.288Z,24.90
2019-04-06T08:48:39.621Z,24.80
2019-04-06T08:51:08.072Z,25.10
2019-04-06T08:53:36.465Z,25.87
2019-04-06T08:56:04.813Z,24.17
2019-04-06T08:58:33.169Z,24.37
2019-04-06T09:01:03.732Z,23.73
2019-04-06T09:03:32.299Z,22.67
2019-04-06T09:06:00.979Z,23.60
2019-04-06T09:08:29.589Z,23.00
2019-04-06T09:10:57.883Z,22.97
2019-04-06T09:13:26.378Z,23.70
2019-04-06T09:15:54.675Z,24.27
2019-04-06T09:18:23.198Z,23.40
2019-04-06T09:20:51.606Z,21.07
2019-04-06T09:23:20.118Z,19.97
2019-04-06T09:25:48.629Z,23.70
2019-04-06T09:28:17.146Z,22.90
2019-04-06T09:30:45.482Z,21.17
2019-04-06T09:33:14.089Z,22.77
2019-04-06T09:35:42.501Z,21.23
2019-04-06T09:38:14.130Z,18.50
2019-04-06T09:40:42.481Z,21.23
2019-04-06T09:43:10.933Z,21.73
2019-04-06T09:45:41.366Z,21.33
2019-04-06T09:48:09.367Z,21.97
2019-04-06T09:50:37.854Z,16.67
2019-04-06T09:53:06.133Z,19.80
2019-04-06T09:55:34.521Z,14.50
2019-04-06T09:58:03.420Z,21.43
2019-04-06T10:00:31.898Z,21.43
2019-04-06T10:03:00.176Z,21.20
2019-04-06T10:05:28.662Z,21.10
2019-04-06T10:08:01.191Z,20.27
2019-04-06T10:10:29.593Z,21.70
2019-04-06T10:12:57.880Z,21.63
2019-04-06T10:15:26.263Z,23.40
2019-04-06T10:17:54.798Z,23.43
2019-04-06T10:20:23.170Z,25.10
2019-04-06T10:22:51.469Z,23.87
2019-04-06T10:25:19.779Z,22.93
2019-04-06T10:27:48.223Z,25.37
2019-04-06T10:30:16.609Z,25.80
2019-04-06T10:32:44.968Z,26.30
2019-04-06T10:35:13.406Z,24.53
2019-04-06T10:37:41.715Z,25.37
2019-04-06T10:40:10.164Z,24.40
2019-04-06T10:42:38.474Z,25.87
2019-04-06T10:45:06.979Z,25.97
2019-04-06T10:47:35.586Z,25.03
2019-04-06T10:50:04.712Z,25.73
2019-04-06T10:52:33.086Z,25.37
2019-04-06T10:55:01.698Z,23.87
2019-04-06T10:57:30.618Z,18.50
2019-04-06T11:00:14.272Z,25.33
2019-04-06T11:02:42.735Z,24.93
2019-04-06T11:05:11.153Z,19.63
2019-04-06T11:07:39.527Z,24.87
2019-04-06T11:10:07.994Z,26.07
2019-04-06T11:12:36.303Z,23.63
2019-04-06T11:15:05.289Z,26.03
2019-04-06T11:17:33.730Z,25.67
2019-04-06T11:20:02.105Z,25.37
2019-04-06T11:22:30.483Z,24.30
2019-04-06T11:24:58.898Z,25.07
2019-04-06T11:27:27.207Z,23.03
2019-04-06T11:29:55.790Z,27.00
2019-04-06T11:32:24.283Z,24.17
2019-04-06T11:34:57.148Z,24.03
2019-04-06T11:37:25.718Z,24.70
2019-04-06T11:39:55.023Z,26.37
2019-04-06T11:42:23.372Z,24.87
2019-04-06T11:45:08.666Z,24.10
2019-04-06T11:47:28.804Z,25.20
2019-04-06T11:49:57.200Z,26.43
2019-04-06T11:52:25.500Z,24.50
2019-04-06T11:54:53.887Z,22.97
2019-04-06T11:57:22.255Z,24.37
2019-04-06T11:59:50.864Z,23.53
2019-04-06T12:02:19.611Z,22.63
2019-04-06T12:04:48.023Z,26.00
2019-04-06T12:07:16.334Z,23.53
2019-04-06T12:09:44.809Z,25.57
2019-04-06T12:12:13.173Z,22.87
2019-04-06T12:14:41.608Z,23.27
2019-04-06T12:17:10.025Z,24.27
2019-04-06T12:19:38.394Z,24.33
2019-04-06T12:22:06.819Z,25.10
2019-04-06T12:24:35.127Z,23.27
2019-04-06T12:27:03.560Z,23.33
2019-04-06T12:29:31.888Z,24.37
2019-04-06T12:32:00.213Z,23.87
2019-04-06T12:34:28.597Z,26.10
2019-04-06T12:36:56.984Z,23.80
2019-04-06T12:39:25.344Z,25.60
2019-04-06T12:41:53.793Z,23.97
2019-04-06T12:44:22.289Z,22.73
2019-04-06T12:46:50.793Z,25.67
2019-04-06T12:49:19.153Z,23.93
2019-04-06T12:51:47.477Z,25.43
2019-04-06T12:54:18.277Z,23.10
2019-04-06T12:56:46.050Z,23.13
2019-04-06T12:59:17.524Z,24.97
2019-04-06T13:01:45.880Z,24.17
2019-04-06T13:04:14.229Z,23.70
2019-04-06T13:06:42.650Z,23.50
2019-04-06T13:09:11.089Z,24.33
2019-04-06T13:11:39.448Z,22.47
2019-04-06T13:14:07.722Z,23.03
2019-04-06T13:16:36.076Z,22.87
2019-04-06T13:19:04.493Z,23.07
2019-04-06T13:21:33.212Z,23.87
2019-04-06T13:24:01.608Z,18.87
2019-04-06T13:26:29.896Z,22.60
2019-04-06T13:28:58.266Z,23.63
2019-04-06T13:31:26.826Z,22.93
2019-04-06T13:33:55.487Z,23.07
2019-04-06T13:36:23.909Z,23.80
2019-04-06T13:38:52.499Z,28.47
2019-04-06T13:41:20.878Z,27.40
2019-04-06T13:43:49.260Z,27.53
2019-04-06T13:46:17.558Z,28.63
2019-04-06T13:48:45.874Z,27.70
2019-04-06T13:51:14.173Z,28.23
2019-04-06T13:53:42.485Z,28.47
2019-04-06T13:56:10.909Z,30.20
2019-04-06T13:58:39.222Z,27.57
2019-04-06T14:01:15.063Z,27.83
2019-04-06T14:03:37.690Z,27.87
2019-04-06T14:06:06.044Z,29.13
2019-04-06T14:08:34.419Z,27.43
2019-04-06T14:11:03.017Z,27.60
2019-04-06T14:13:31.381Z,29.47
2019-04-06T14:15:59.900Z,27.97
2019-04-06T14:18:28.285Z,28.77
2019-04-06T14:20:56.952Z,29.60
2019-04-06T14:23:25.342Z,28.63
2019-04-06T14:25:53.892Z,30.10
2019-04-06T14:28:22.210Z,29.07
2019-04-06T14:30:50.559Z,28.17
2019-04-06T14:33:18.967Z,29.30
2019-04-06T14:35:47.371Z,28.93
2019-04-06T14:38:15.749Z,29.03
2019-04-06T14:40:44.106Z,28.40
2019-04-06T14:43:12.435Z,28.70
2019-04-06T14:45:40.799Z,23.20
2019-04-06T14:48:09.741Z,21.63
2019-04-06T14:50:38.535Z,20.87
2019-04-06T14:53:06.936Z,19.37
2019-04-06T14:55:35.554Z,18.70
2019-04-06T14:58:04.143Z,19.70
2019-04-06T15:00:32.545Z,19.73
2019-04-06T15:03:00.896Z,18.80
2019-04-06T15:05:29.209Z,19.53
2019-04-06T15:07:57.610Z,18.90
2019-04-06T15:10:25.986Z,18.73
2019-04-06T15:12:54.399Z,19.00
2019-04-06T15:15:22.826Z,18.07
2019-04-06T15:17:51.189Z,19.87
2019-04-06T15:20:19.549Z,20.00
2019-04-06T15:22:47.930Z,17.93
2019-04-06T15:25:16.218Z,19.57
2019-04-06T15:27:44.981Z,19.60
2019-04-06T15:30:13.755Z,22.57
2019-04-06T15:32:42.077Z,25.20
2019-04-06T15:35:10.451Z,22.87
2019-04-06T15:37:38.884Z,19.93
2019-04-06T15:40:07.634Z,18.83
2019-04-06T15:42:36.350Z,20.23
2019-04-06T15:45:04.861Z,18.07
2019-04-06T15:47:33.177Z,17.50
2019-04-06T15:50:01.563Z,18.33
2019-04-06T15:52:29.957Z,17.53
2019-04-06T15:54:58.320Z,17.23
2019-04-06T15:57:26.703Z,18.13
2019-04-06T15:59:55.072Z,16.93
2019-04-06T16:02:23.386Z,17.90
2019-04-06T16:04:51.726Z,18.33
2019-04-06T16:07:29.730Z,19.13
2019-04-06T16:09:50.322Z,18.37
2019-04-06T16:12:18.700Z,18.83
2019-04-06T16:14:47.064Z,17.23
2019-04-06T16:17:15.522Z,17.13
2019-04-06T16:19:44.167Z,17.70
2019-04-06T16:22:12.586Z,17.03
2019-04-06T16:24:40.970Z,17.50
2019-04-06T16:27:10.416Z,17.70
2019-04-06T16:29:39.004Z,18.13
2019-04-06T16:32:12.393Z,18.37
2019-04-06T16:34:37.907Z,17.93
2019-04-06T16:37:06.564Z,17.67
2019-04-06T16:39:34.998Z,17.57
2019-04-06T16:42:03.463Z,18.07
2019-04-06T16:44:31.863Z,17.47
2019-04-06T16:47:00.211Z,16.70
2019-04-06T16:49:29.040Z,17.53
2019-04-06T16:51:57.637Z,16.20
2019-04-06T16:54:26.080Z,16.87
2019-04-06T16:56:54.477Z,17.33
2019-04-06T16:59:23.108Z,17.43
2019-04-06T17:01:52.211Z,17.23
2019-04-06T17:04:22.510Z,17.80
2019-04-06T17:06:51.115Z,17.90
2019-04-06T17:09:19.575Z,17.40
2019-04-06T17:11:48.113Z,16.60
2019-04-06T17:14:16.967Z,17.77
2019-04-06T17:16:45.520Z,17.83
2019-04-06T17:19:14.361Z,17.60
2019-04-06T17:21:42.861Z,17.63
2019-04-06T17:24:11.290Z,17.97
2019-04-06T17:26:42.306Z,19.00
2019-04-06T17:29:10.215Z,20.00
2019-04-06T17:31:38.991Z,18.80
2019-04-06T17:34:07.457Z,19.77
2019-04-06T17:36:35.935Z,19.07
2019-04-06T17:39:05.828Z,20.03
2019-04-06T17:41:34.269Z,21.63
2019-04-06T17:44:02.744Z,19.63
2019-04-06T17:46:31.522Z,19.93
2019-04-06T17:49:02.216Z,21.10
2019-04-06T17:51:31.017Z,21.27
2019-04-06T17:53:59.650Z,20.93
2019-04-06T17:56:28.448Z,22.00
2019-04-06T17:58:56.866Z,23.50
2019-04-06T18:01:25.293Z,28.60
2019-04-06T18:03:54.041Z,19.33
2019-04-06T18:06:22.409Z,20.23
2019-04-06T18:08:51.099Z,18.20
2019-04-06T18:11:19.502Z,20.10
2019-04-06T18:13:47.942Z,20.37
2019-04-06T18:16:18.847Z,19.73
2019-04-06T18:18:47.415Z,19.37
2019-04-06T18:21:15.841Z,20.97
2019-04-06T18:23:44.888Z,20.57
2019-04-06T18:26:13.306Z,20.53
2019-04-06T18:28:41.946Z,19.90
2019-04-06T18:31:10.708Z,21.20
2019-04-06T18:33:40.258Z,22.50
2019-04-06T18:36:09.637Z,21.70
2019-04-06T18:38:38.680Z,22.17
2019-04-06T18:41:07.455Z,21.53
2019-04-06T18:43:36.581Z,21.87
2019-04-06T18:46:05.506Z,21.47
2019-04-06T18:48:34.213Z,23.90
2019-04-06T18:51:03.370Z,23.97
2019-04-06T18:53:32.292Z,24.50
2019-04-06T18:56:01.790Z,23.20
2019-04-06T18:58:30.612Z,21.13
2019-04-06T19:00:59.583Z,22.07
2019-04-06T19:03:28.386Z,23.97
2019-04-06T19:05:57.281Z,23.20
2019-04-06T19:08:26.193Z,26.00
2019-04-06T19:10:55.941Z,27.80
2019-04-06T19:13:25.096Z,26.77
2019-04-06T19:15:54.055Z,29.33
2019-04-06T19:18:22.959Z,29.00
2019-04-06T19:20:51.906Z,31.03
2019-04-06T19:23:20.869Z,32.03
2019-04-06T19:25:49.835Z,30.07
2019-04-06T19:28:18.596Z,28.00
2019-04-06T19:30:47.728Z,27.97
2019-04-06T19:33:24.270Z,29.03
2019-04-06T19:35:47.415Z,33.37
2019-04-06T19:38:16.752Z,34.48
2019-04-06T19:40:46.054Z,35.73
2019-04-06T19:43:17.227Z,37.30
2019-04-06T19:45:45.489Z,31.50
2019-04-06T19:48:14.333Z,31.83
2019-04-06T19:50:43.133Z,33.20
2019-04-06T19:53:12.391Z,31.27
2019-04-06T19:55:41.238Z,35.37
2019-04-06T19:58:10.437Z,33.00
2019-04-06T20:00:40.344Z,32.80
2019-04-06T20:03:09.323Z,32.83
2019-04-06T20:05:38.200Z,32.43
2019-04-06T20:08:07.199Z,34.27
2019-04-06T20:10:37.467Z,33.97
2019-04-06T20:13:07.363Z,34.60
2019-04-06T20:15:36.417Z,33.23
2019-04-06T20:18:05.419Z,34.20
2019-04-06T20:20:34.862Z,34.10
2019-04-06T20:23:03.855Z,37.67
2019-04-06T20:25:32.954Z,36.23
2019-04-06T20:28:01.962Z,34.77
2019-04-06T20:30:30.741Z,32.33
2019-04-06T20:32:59.501Z,33.87
2019-04-06T20:35:28.476Z,34.47
2019-04-06T20:37:57.302Z,38.03
2019-04-06T20:40:26.678Z,35.73
2019-04-06T20:42:55.470Z,36.47
2019-04-06T20:45:24.669Z,33.73
2019-04-06T20:47:53.961Z,33.37
2019-04-06T20:50:23.409Z,31.13
2019-04-06T20:52:52.508Z,33.03
2019-04-06T20:55:21.340Z,33.83
2019-04-06T20:57:50.139Z,37.00
2019-04-06T21:00:19.842Z,36.37
2019-04-06T21:02:49.067Z,35.93
2019-04-06T21:05:18.362Z,38.43
2019-04-06T21:07:47.244Z,36.13
2019-04-06T21:10:16.441Z,37.20
2019-04-06T21:12:45.235Z,38.03
2019-04-06T21:15:19.347Z,38.30
2019-04-06T21:17:44.963Z,42.10
2019-04-06T21:20:14.121Z,39.53
2019-04-06T21:22:43.570Z,40.10
2019-04-06T21:25:12.579Z,40.20
2019-04-06T21:27:43.170Z,43.63
2019-04-06T21:30:12.335Z,41.67
2019-04-06T21:32:41.431Z,44.50
2019-04-06T21:35:10.379Z,44.20
2019-04-06T21:37:39.163Z,46.03
2019-04-06T21:40:08.226Z,46.53
2019-04-06T21:42:37.635Z,47.90
2019-04-06T21:45:08.175Z,48.27
2019-04-06T21:47:37.468Z,48.70
2019-04-06T21:50:06.888Z,50.53
2019-04-06T21:52:35.762Z,51.73
2019-04-06T21:55:06.144Z,51.07
2019-04-06T21:57:35.501Z,49.93
2019-04-06T22:00:07.395Z,51.27
2019-04-06T22:02:36.936Z,51.30
2019-04-06T22:05:07.033Z,51.93
2019-04-06T22:07:47.106Z,53.13
2019-04-06T22:10:07.229Z,53.80
2019-04-06T22:12:36.593Z,52.83
2019-04-06T22:15:07.557Z,53.20
2019-04-06T22:17:36.502Z,53.30
2019-04-06T22:20:07.389Z,55.50
2019-04-06T22:22:36.817Z,55.17
2019-04-06T22:25:08.481Z,53.20
2019-04-06T22:27:37.266Z,55.53
2019-04-06T22:30:07.984Z,52.97
2019-04-06T22:32:36.818Z,56.57
2019-04-06T22:35:07.261Z,55.63
2019-04-06T22:37:36.177Z,54.10
2019-04-06T22:40:05.641Z,57.07
2019-04-06T22:42:34.394Z,56.07
2019-04-06T22:45:08.287Z,55.77
2019-04-06T22:47:37.228Z,55.63
2019-04-06T22:50:07.038Z,57.60
2019-04-06T22:52:36.651Z,55.07
2019-04-06T22:55:06.150Z,56.07
2019-04-06T22:57:34.965Z,57.53
2019-04-06T23:00:06.745Z,57.47
2019-04-06T23:02:36.224Z,56.03
2019-04-06T23:05:05.497Z,55.30
2019-04-06T23:07:34.830Z,58.17
2019-04-06T23:10:04.369Z,58.10
2019-04-06T23:12:33.733Z,56.50
2019-04-06T23:15:03.418Z,56.37
2019-04-06T23:17:32.210Z,54.33
2019-04-06T23:20:01.208Z,57.07
2019-04-06T23:22:30.197Z,57.50
2019-04-06T23:24:59.079Z,54.67
2019-04-06T23:27:27.954Z,55.10
2019-04-06T23:29:56.899Z,55.87
2019-04-06T23:32:26.103Z,57.30
2019-04-06T23:34:59.835Z,53.57
2019-04-06T23:37:25.360Z,55.33
2019-04-06T23:39:54.122Z,56.27
2019-04-06T23:42:22.882Z,54.10
2019-04-06T23:44:51.696Z,54.27
2019-04-06T23:47:20.410Z,55.30
2019-04-06T23:49:49.580Z,54.87
2019-04-06T23:52:18.363Z,52.87
2019-04-06T23:54:47.381Z,55.43
2019-04-06T23:57:16.247Z,51.90
2019-04-06T23:59:45.021Z,52.53
